createdAt,value
2022-11-24T00:00:12.276Z,71.83
2022-11-24T00:02:39.055Z,72.19
2022-11-24T00:05:06.343Z,72.62
2022-11-24T00:07:32.932Z,72.26
2022-11-24T00:09:59.578Z,71.91
2022-11-24T00:12:26.143Z,73.11
2022-11-24T00:14:52.699Z,72.35
2022-11-24T00:17:19.242Z,72.30
2022-11-24T00:19:45.881Z,72.18
2022-11-24T00:22:12.439Z,71.62
2022-11-24T00:24:39.240Z,71.87
2022-11-24T00:27:06.121Z,71.05
2022-11-24T00:29:32.699Z,71.51
2022-11-24T00:31:59.279Z,71.47
2022-11-24T00:34:26.938Z,71.30
2022-11-24T00:36:53.447Z,71.98
2022-11-24T00:39:20.020Z,72.12
2022-11-24T00:41:46.599Z,72.38
2022-11-24T00:44:13.363Z,72.25
2022-11-24T00:46:40.108Z,72.55
2022-11-24T00:49:06.885Z,72.19
2022-11-24T00:51:33.534Z,71.98
2022-11-24T00:54:01.188Z,72.58
2022-11-24T00:56:29.177Z,72.26
2022-11-24T00:58:56.782Z,72.39
2022-11-24T01:01:26.744Z,72.15
2022-11-24T01:03:57.327Z,71.91
2022-11-24T01:06:25.889Z,71.53
2022-11-24T01:08:52.732Z,71.65
2022-11-24T01:11:28.742Z,72.02
2022-11-24T01:13:57.848Z,72.00
2022-11-24T01:16:26.013Z,71.86
2022-11-24T01:18:52.707Z,71.92
2022-11-24T01:21:20.267Z,72.13
2022-11-24T01:23:47.093Z,72.49
2022-11-24T01:26:20.287Z,72.01
2022-11-24T01:28:47.831Z,72.34
2022-11-24T01:31:15.508Z,71.87
2022-11-24T01:33:42.259Z,72.30
2022-11-24T01:36:08.861Z,72.05
2022-11-24T01:38:35.428Z,71.77
2022-11-24T01:41:04.923Z,71.29
2022-11-24T01:43:32.080Z,71.29
2022-11-24T01:46:04.903Z,71.79
2022-11-24T01:48:38.487Z,71.45
2022-11-24T01:51:16.540Z,72.26
2022-11-24T01:53:49.090Z,71.87
2022-11-24T01:56:15.811Z,71.62
2022-11-24T01:58:45.422Z,71.90
2022-11-24T02:01:12.236Z,71.18
2022-11-24T02:03:44.722Z,71.18
2022-11-24T02:06:14.012Z,71.17
2022-11-24T02:09:00.988Z,70.93
2022-11-24T02:11:33.329Z,71.32
2022-11-24T02:14:00.729Z,70.77
2022-11-24T02:16:27.629Z,71.32
2022-11-24T02:18:54.239Z,71.62
2022-11-24T02:21:20.853Z,71.24
2022-11-24T02:23:59.468Z,70.99
2022-11-24T02:26:39.623Z,70.64
2022-11-24T02:29:06.252Z,69.95
2022-11-24T02:31:33.712Z,69.54
2022-11-24T02:34:00.352Z,68.99
2022-11-24T02:36:26.990Z,69.17
2022-11-24T02:38:53.660Z,70.22
2022-11-24T02:41:23.298Z,69.07
2022-11-24T02:43:54.871Z,69.32
2022-11-24T02:46:21.368Z,68.84
2022-11-24T02:48:48.239Z,68.73
2022-11-24T02:51:14.806Z,68.40
2022-11-24T02:53:41.460Z,68.52
2022-11-24T02:56:08.542Z,67.99
2022-11-24T02:58:35.173Z,67.78
2022-11-24T03:01:02.798Z,67.83
2022-11-24T03:03:29.423Z,68.61
2022-11-24T03:05:56.059Z,68.16
2022-11-24T03:08:22.663Z,67.68
2022-11-24T03:10:49.408Z,67.63
2022-11-24T03:13:16.103Z,67.58
2022-11-24T03:15:42.748Z,68.58
2022-11-24T03:18:09.431Z,68.21
2022-11-24T03:20:36.198Z,67.77
2022-11-24T03:23:03.002Z,67.90
2022-11-24T03:25:29.589Z,68.19
2022-11-24T03:27:58.172Z,68.66
2022-11-24T03:30:24.986Z,69.30
2022-11-24T03:32:52.923Z,69.62
2022-11-24T03:35:23.140Z,69.42
2022-11-24T03:37:49.915Z,68.82
2022-11-24T03:40:17.902Z,68.31
2022-11-24T03:42:44.440Z,69.24
2022-11-24T03:45:38.155Z,68.42
2022-11-24T03:47:57.639Z,67.54
2022-11-24T03:50:24.283Z,67.17
2022-11-24T03:52:50.799Z,66.86
2022-11-24T03:55:17.359Z,66.69
2022-11-24T03:57:43.870Z,66.52
2022-11-24T04:00:11.823Z,66.72
2022-11-24T04:02:38.520Z,68.03
2022-11-24T04:05:05.912Z,68.32
2022-11-24T04:07:32.538Z,68.55
2022-11-24T04:09:59.396Z,68.93
2022-11-24T04:12:44.180Z,68.85
2022-11-24T04:15:17.166Z,69.15
2022-11-24T04:17:45.128Z,70.12
2022-11-24T04:20:12.710Z,69.90
2022-11-24T04:22:39.739Z,70.48
2022-11-24T04:25:07.404Z,69.39
2022-11-24T04:27:35.474Z,69.19
2022-11-24T04:30:02.734Z,69.33
2022-11-24T04:32:29.283Z,69.77
2022-11-24T04:34:55.862Z,69.76
2022-11-24T04:37:22.616Z,69.27
2022-11-24T04:39:49.169Z,68.43
2022-11-24T04:42:15.735Z,68.10
2022-11-24T04:44:42.331Z,68.58
2022-11-24T04:47:15.612Z,68.23
2022-11-24T04:49:42.216Z,68.84
2022-11-24T04:52:08.761Z,69.09
2022-11-24T04:54:35.759Z,69.48
2022-11-24T04:57:02.469Z,69.41
2022-11-24T04:59:29.172Z,68.92
2022-11-24T05:01:55.785Z,68.47
2022-11-24T05:04:22.501Z,68.59
2022-11-24T05:06:49.139Z,69.25
2022-11-24T05:09:17.072Z,69.09
2022-11-24T05:11:43.902Z,68.67
2022-11-24T05:14:10.531Z,68.67
2022-11-24T05:16:37.796Z,69.31
2022-11-24T05:19:04.535Z,69.49
2022-11-24T05:21:31.073Z,68.63
2022-11-24T05:23:57.899Z,68.63
2022-11-24T05:26:24.453Z,68.27
2022-11-24T05:28:51.008Z,67.57
2022-11-24T05:31:17.609Z,67.40
2022-11-24T05:33:44.189Z,66.90
2022-11-24T05:36:33.473Z,66.21
2022-11-24T05:39:00.454Z,65.84
2022-11-24T05:41:27.027Z,66.05
2022-11-24T05:43:53.675Z,66.11
2022-11-24T05:46:20.269Z,65.68
2022-11-24T05:48:48.286Z,65.68
2022-11-24T05:51:14.846Z,65.92
2022-11-24T05:53:41.477Z,66.28
2022-11-24T05:56:08.326Z,65.95
2022-11-24T05:58:34.886Z,65.81
2022-11-24T06:01:05.040Z,65.32
2022-11-24T06:03:31.584Z,65.84
2022-11-24T06:05:58.110Z,65.57
2022-11-24T06:08:29.658Z,65.44
2022-11-24T06:11:20.122Z,65.62
2022-11-24T06:13:48.713Z,65.81
2022-11-24T06:16:16.013Z,66.48
2022-11-24T06:18:42.751Z,66.12
2022-11-24T06:21:11.168Z,67.08
2022-11-24T06:23:38.618Z,67.98
2022-11-24T06:26:05.983Z,68.40
2022-11-24T06:28:32.694Z,68.97
2022-11-24T06:31:04.009Z,69.36
2022-11-24T06:33:38.189Z,68.95
2022-11-24T06:36:07.758Z,68.70
2022-11-24T06:38:35.721Z,69.14
2022-11-24T06:41:07.947Z,68.30
2022-11-24T06:43:34.990Z,68.71
2022-11-24T06:46:02.509Z,68.64
2022-11-24T06:48:30.022Z,68.45
2022-11-24T06:51:05.327Z,69.05
2022-11-24T06:53:33.335Z,68.83
2022-11-24T06:56:01.913Z,69.16
2022-11-24T06:58:28.588Z,69.22
2022-11-24T07:00:55.174Z,69.13
2022-11-24T07:03:22.617Z,69.80
2022-11-24T07:05:49.402Z,70.51
2022-11-24T07:08:19.029Z,70.79
2022-11-24T07:10:49.886Z,71.30
2022-11-24T07:13:16.509Z,71.48
2022-11-24T07:15:43.113Z,71.44
2022-11-24T07:18:09.719Z,71.98
2022-11-24T07:20:39.365Z,71.99
2022-11-24T07:23:06.779Z,72.51
2022-11-24T07:25:33.702Z,72.68
2022-11-24T07:28:03.406Z,72.17
2022-11-24T07:30:29.948Z,73.11
2022-11-24T07:33:03.235Z,73.31
2022-11-24T07:35:30.794Z,73.19
2022-11-24T07:37:58.444Z,73.47
2022-11-24T07:40:26.750Z,72.73
2022-11-24T07:42:54.238Z,72.67
2022-11-24T07:45:21.385Z,73.49
2022-11-24T07:47:48.018Z,73.84
2022-11-24T07:50:14.887Z,73.13
2022-11-24T07:52:41.441Z,73.47
2022-11-24T07:55:08.781Z,72.92
2022-11-24T07:57:35.459Z,72.93
2022-11-24T08:00:02.311Z,72.87
2022-11-24T08:02:31.446Z,72.94
2022-11-24T08:04:57.987Z,73.80
2022-11-24T08:07:24.779Z,74.30
2022-11-24T08:09:52.140Z,74.21
2022-11-24T08:12:21.612Z,73.87
2022-11-24T08:14:50.136Z,73.78
2022-11-24T08:17:17.664Z,74.31
2022-11-24T08:19:44.637Z,74.04
2022-11-24T08:22:11.283Z,73.76
2022-11-24T08:24:38.338Z,73.60
2022-11-24T08:27:05.243Z,73.64
2022-11-24T08:29:32.039Z,74.67
2022-11-24T08:31:58.626Z,73.84
2022-11-24T08:34:26.132Z,73.81
2022-11-24T08:36:52.671Z,73.07
2022-11-24T08:39:20.380Z,73.49
2022-11-24T08:41:47.051Z,73.32
2022-11-24T08:44:18.249Z,73.83
2022-11-24T08:46:45.276Z,74.01
2022-11-24T08:49:13.622Z,73.35
2022-11-24T08:51:40.502Z,73.68
2022-11-24T08:54:08.461Z,73.83
2022-11-24T08:56:35.015Z,73.85
2022-11-24T08:59:02.165Z,73.75
2022-11-24T09:01:29.013Z,74.14
2022-11-24T09:03:58.888Z,73.23
2022-11-24T09:06:30.301Z,73.59
2022-11-24T09:08:58.058Z,72.82
2022-11-24T09:11:25.970Z,73.08
2022-11-24T09:13:53.380Z,74.00
2022-11-24T09:16:22.613Z,73.99
2022-11-24T09:19:04.850Z,74.58
2022-11-24T09:21:34.131Z,74.17
2022-11-24T09:24:00.915Z,74.59
2022-11-24T09:26:30.015Z,75.07
2022-11-24T09:28:58.535Z,74.42
2022-11-24T09:31:28.245Z,74.44
2022-11-24T09:33:55.133Z,75.03
2022-11-24T09:36:22.077Z,75.11
2022-11-24T09:38:48.909Z,75.69
2022-11-24T09:41:18.389Z,73.98
2022-11-24T09:43:57.038Z,73.77
2022-11-24T09:46:32.050Z,74.36
2022-11-24T09:48:58.786Z,74.77
2022-11-24T09:51:29.339Z,74.74
2022-11-24T09:54:09.200Z,75.76
2022-11-24T09:56:40.602Z,76.13
2022-11-24T09:59:23.355Z,76.00
2022-11-24T10:01:51.384Z,76.74
2022-11-24T10:04:20.905Z,76.89
2022-11-24T10:07:06.470Z,76.67
2022-11-24T10:09:57.021Z,77.13
2022-11-24T10:12:51.616Z,76.94
2022-11-24T10:15:45.654Z,76.78
2022-11-24T10:18:42.977Z,76.31
2022-11-24T10:21:18.503Z,76.18
2022-11-24T10:24:13.482Z,76.83
2022-11-24T10:26:46.885Z,76.98
2022-11-24T10:29:21.384Z,76.91
2022-11-24T10:31:53.687Z,75.99
2022-11-24T10:34:34.459Z,75.93
2022-11-24T10:37:11.495Z,76.76
2022-11-24T10:39:59.680Z,75.82
2022-11-24T10:42:29.879Z,74.48
2022-11-24T10:45:09.489Z,75.04
2022-11-24T10:47:36.061Z,75.57
2022-11-24T10:50:12.718Z,75.93
2022-11-24T10:52:42.778Z,75.27
2022-11-24T10:55:09.889Z,75.05
2022-11-24T10:57:39.207Z,75.25
2022-11-24T11:00:21.018Z,75.10
2022-11-24T11:02:49.047Z,74.65
2022-11-24T11:05:33.642Z,74.77
2022-11-24T11:08:30.508Z,74.37
2022-11-24T11:11:31.351Z,73.96
2022-11-24T11:14:04.759Z,74.46
2022-11-24T11:16:39.471Z,74.71
2022-11-24T11:19:51.426Z,74.60
2022-11-24T11:22:31.890Z,74.48
2022-11-24T11:25:12.300Z,74.81
2022-11-24T11:27:40.587Z,74.71
2022-11-24T11:36:11.190Z,74.62
2022-11-24T11:38:39.618Z,73.35
2022-11-24T11:41:11.629Z,73.33
2022-11-24T11:43:40.953Z,72.44
2022-11-24T11:46:13.297Z,72.58
2022-11-24T11:48:44.824Z,72.46
2022-11-24T11:51:41.367Z,72.11
2022-11-24T11:54:21.259Z,72.43
2022-11-24T11:56:55.031Z,71.72
2022-11-24T11:59:28.219Z,72.08
2022-11-24T12:02:38.545Z,72.08
2022-11-24T12:05:41.521Z,71.86
2022-11-24T12:08:21.586Z,71.01
2022-11-24T12:10:53.085Z,71.04
2022-11-24T12:13:38.130Z,70.97
2022-11-24T12:16:27.791Z,70.85
2022-11-24T12:19:32.961Z,70.25
2022-11-24T12:22:14.678Z,70.74
2022-11-24T12:24:53.261Z,70.29
2022-11-24T12:27:50.835Z,69.88
2022-11-24T12:30:18.750Z,69.37
2022-11-24T12:33:05.539Z,69.64
2022-11-24T12:36:03.492Z,68.46
2022-11-24T12:38:54.633Z,68.27
2022-11-24T12:41:45.137Z,68.24
2022-11-24T12:44:30.747Z,67.97
2022-11-24T12:47:10.025Z,69.43
2022-11-24T12:50:03.819Z,68.22
2022-11-24T12:52:38.659Z,67.42
2022-11-24T12:55:12.627Z,67.54
2022-11-24T12:58:10.621Z,67.41
2022-11-24T13:00:48.248Z,67.03
2022-11-24T13:03:30.559Z,67.09
2022-11-24T13:06:02.828Z,66.74
2022-11-24T13:08:30.692Z,66.38
2022-11-24T13:11:23.079Z,66.45
2022-11-24T13:14:13.960Z,66.86
2022-11-24T13:17:13.440Z,67.23
2022-11-24T13:19:37.637Z,67.22
2022-11-24T13:22:07.238Z,67.01
2022-11-24T13:24:39.690Z,67.06
2022-11-24T13:27:15.550Z,67.31
2022-11-24T13:29:46.894Z,67.16
2022-11-24T13:32:14.491Z,66.92
2022-11-24T13:34:41.339Z,66.50
2022-11-24T13:37:33.877Z,66.61
2022-11-24T13:40:31.232Z,66.93
2022-11-24T13:42:57.814Z,66.36
2022-11-24T13:45:39.875Z,66.56
2022-11-24T13:48:18.990Z,66.65
2022-11-24T13:50:54.671Z,66.45
2022-11-24T13:53:38.579Z,66.38
2022-11-24T13:56:08.060Z,66.60
2022-11-24T13:58:42.831Z,66.60
2022-11-24T14:01:36.107Z,66.46
2022-11-24T14:04:35.269Z,65.92
2022-11-24T14:07:09.554Z,65.97
2022-11-24T14:09:43.106Z,65.57
2022-11-24T14:12:17.748Z,65.06
2022-11-24T14:14:46.551Z,64.27
2022-11-24T14:17:13.078Z,64.15
2022-11-24T14:19:40.497Z,63.79
2022-11-24T14:22:19.297Z,63.93
2022-11-24T14:24:57.726Z,63.60
2022-11-24T14:27:37.212Z,63.24
2022-11-24T14:30:17.559Z,63.76
2022-11-24T14:33:00.530Z,63.07
2022-11-24T14:35:35.853Z,63.44
2022-11-24T14:38:05.247Z,63.31
2022-11-24T14:40:39.280Z,63.31
2022-11-24T14:43:18.438Z,63.43
2022-11-24T14:45:56.016Z,63.56
2022-11-24T14:48:36.862Z,63.77
2022-11-24T14:51:16.053Z,63.54
2022-11-24T14:53:48.938Z,63.47
2022-11-24T14:56:26.817Z,63.44
2022-11-24T14:58:55.083Z,63.02
2022-11-24T15:01:27.563Z,63.13
2022-11-24T15:04:22.069Z,63.32
2022-11-24T15:07:27.017Z,63.24
2022-11-24T15:09:58.053Z,62.99
2022-11-24T15:12:33.823Z,63.22
2022-11-24T15:15:06.344Z,63.97
2022-11-24T15:17:33.057Z,64.66
2022-11-24T15:20:16.999Z,65.18
2022-11-24T15:22:46.612Z,64.88
2022-11-24T15:25:33.796Z,63.82
2022-11-24T15:28:01.115Z,63.49
2022-11-24T15:30:35.715Z,64.02
2022-11-24T15:33:02.834Z,64.20
2022-11-24T15:35:31.571Z,63.97
2022-11-24T15:37:58.497Z,63.67
2022-11-24T15:40:25.072Z,65.08
2022-11-24T15:42:54.288Z,65.45
2022-11-24T15:45:23.076Z,64.58
2022-11-24T15:47:49.746Z,63.91
2022-11-24T15:50:17.024Z,64.08
2022-11-24T15:52:44.617Z,63.67
2022-11-24T15:55:20.331Z,62.58
2022-11-24T15:57:47.539Z,64.35
2022-11-24T16:00:16.703Z,65.12
2022-11-24T16:02:43.415Z,64.80
2022-11-24T16:05:11.352Z,63.97
2022-11-24T16:07:38.033Z,63.53
2022-11-24T16:10:07.574Z,64.34
2022-11-24T16:12:34.179Z,65.00
2022-11-24T16:15:00.709Z,63.57
2022-11-24T16:17:27.299Z,63.66
2022-11-24T16:20:00.113Z,64.14
2022-11-24T16:22:27.571Z,62.85
2022-11-24T16:24:54.104Z,62.00
2022-11-24T16:27:20.761Z,61.54
2022-11-24T16:29:47.356Z,60.96
2022-11-24T16:32:13.896Z,62.41
2022-11-24T16:34:40.475Z,63.10
2022-11-24T16:37:07.038Z,62.80
2022-11-24T16:39:33.578Z,62.22
2022-11-24T16:42:00.155Z,62.99
2022-11-24T16:44:26.682Z,62.92
2022-11-24T16:46:53.243Z,63.02
2022-11-24T16:49:19.845Z,62.61
2022-11-24T16:51:46.406Z,62.62
2022-11-24T16:54:12.946Z,62.60
2022-11-24T16:56:39.621Z,61.09
2022-11-24T16:59:06.252Z,61.53
2022-11-24T17:01:33.010Z,61.37
2022-11-24T17:04:00.293Z,61.34
2022-11-24T17:06:27.407Z,61.72
2022-11-24T17:08:55.452Z,61.36
2022-11-24T17:11:24.273Z,61.13
2022-11-24T17:13:51.230Z,62.06
2022-11-24T17:16:20.461Z,61.82
2022-11-24T17:18:47.488Z,61.13
2022-11-24T17:21:17.141Z,60.46
2022-11-24T17:23:43.807Z,61.56
2022-11-24T17:26:13.035Z,61.93
2022-11-24T17:28:40.108Z,61.67
2022-11-24T17:31:07.593Z,61.42
2022-11-24T17:33:35.146Z,61.86
2022-11-24T17:36:06.423Z,61.37
2022-11-24T17:38:33.172Z,61.43
2022-11-24T17:40:59.727Z,62.01
2022-11-24T17:43:27.460Z,61.06
2022-11-24T17:45:59.062Z,61.54
2022-11-24T17:48:25.743Z,60.87
2022-11-24T17:51:10.667Z,61.21
2022-11-24T17:53:37.668Z,60.94
2022-11-24T17:56:05.542Z,61.67
2022-11-24T17:58:37.171Z,61.66
2022-11-24T18:01:06.839Z,61.82
2022-11-24T18:03:33.739Z,62.20
2022-11-24T18:06:11.388Z,62.36
2022-11-24T18:08:39.773Z,61.71
2022-11-24T18:11:19.931Z,61.72
2022-11-24T18:14:03.116Z,60.22
2022-11-24T18:16:34.292Z,61.24
2022-11-24T18:19:11.346Z,60.67
2022-11-24T18:21:40.303Z,61.33
2022-11-24T18:24:08.774Z,61.38
2022-11-24T18:26:35.405Z,61.91
2022-11-24T18:29:01.954Z,62.19
2022-11-24T18:31:29.460Z,61.79
2022-11-24T18:33:56.643Z,62.26
2022-11-24T18:36:30.058Z,61.77
2022-11-24T18:39:00.955Z,62.14
2022-11-24T18:41:27.618Z,61.82
2022-11-24T18:43:54.296Z,62.67
2022-11-24T18:46:20.943Z,62.16
2022-11-24T18:48:47.691Z,62.37
2022-11-24T18:51:14.456Z,62.41
2022-11-24T18:53:42.686Z,62.31
2022-11-24T18:56:13.591Z,62.06
2022-11-24T18:58:40.245Z,62.35
2022-11-24T19:01:08.922Z,61.57
2022-11-24T19:03:48.749Z,63.07
2022-11-24T19:06:28.545Z,62.25
2022-11-24T19:08:55.775Z,61.20
2022-11-24T19:11:25.075Z,61.62
2022-11-24T19:13:51.697Z,62.41
2022-11-24T19:16:20.142Z,61.71
2022-11-24T19:18:53.680Z,61.82
2022-11-24T19:21:21.900Z,61.79
2022-11-24T19:23:48.951Z,61.99
2022-11-24T19:26:15.540Z,61.40
2022-11-24T19:28:42.081Z,62.51
2022-11-24T19:31:12.597Z,62.63
2022-11-24T19:33:39.953Z,62.28
2022-11-24T19:36:16.058Z,61.65
2022-11-24T19:38:43.532Z,62.66
2022-11-24T19:41:12.414Z,62.46
2022-11-24T19:43:40.045Z,62.77
2022-11-24T19:46:12.671Z,63.77
2022-11-24T19:48:44.778Z,62.85
2022-11-24T19:51:14.396Z,63.10
2022-11-24T19:53:41.654Z,63.08
2022-11-24T19:56:10.976Z,63.94
2022-11-24T19:58:38.305Z,63.34
2022-11-24T20:01:06.993Z,63.52
2022-11-24T20:03:34.214Z,62.81
2022-11-24T20:06:00.814Z,62.98
2022-11-24T20:08:35.282Z,62.36
2022-11-24T20:11:12.533Z,62.68
2022-11-24T20:13:40.898Z,62.32
2022-11-24T20:16:11.415Z,62.96
2022-11-24T20:18:42.124Z,62.54
2022-11-24T20:21:14.118Z,62.76
2022-11-24T20:23:41.363Z,62.89
2022-11-24T20:26:11.518Z,63.09
2022-11-24T20:28:38.354Z,62.78
2022-11-24T20:31:11.005Z,62.81
2022-11-24T20:33:38.222Z,62.85
2022-11-24T20:36:09.988Z,62.64
2022-11-24T20:38:37.826Z,63.35
2022-11-24T20:41:09.256Z,63.35
2022-11-24T20:43:36.947Z,63.72
2022-11-24T20:46:15.434Z,63.47
2022-11-24T20:48:42.481Z,64.01
2022-11-24T20:51:12.546Z,64.42
2022-11-24T20:53:39.542Z,64.13
2022-11-24T20:56:10.029Z,63.65
2022-11-24T20:58:37.589Z,64.14
2022-11-24T21:01:10.887Z,63.65
2022-11-24T21:03:42.761Z,63.37
2022-11-24T21:06:12.482Z,63.39
2022-11-24T21:08:41.726Z,63.59
2022-11-24T21:11:11.840Z,64.45
2022-11-24T21:13:40.109Z,65.40
2022-11-24T21:16:15.713Z,65.34
2022-11-24T21:18:43.713Z,66.38
2022-11-24T21:21:10.820Z,66.71
2022-11-24T21:23:37.546Z,66.61
2022-11-24T21:26:09.067Z,66.64
2022-11-24T21:28:38.747Z,66.85
2022-11-24T21:31:07.335Z,66.96
2022-11-24T21:33:34.425Z,67.83
2022-11-24T21:36:02.607Z,67.38
2022-11-24T21:38:29.584Z,67.82
2022-11-24T21:41:00.965Z,67.51
2022-11-24T21:43:29.590Z,68.06
2022-11-24T21:46:04.102Z,68.11
2022-11-24T21:48:31.840Z,68.44
2022-11-24T21:51:00.108Z,69.19
2022-11-24T21:53:29.551Z,68.56
2022-11-24T21:56:00.639Z,68.44
2022-11-24T21:58:28.345Z,67.96
2022-11-24T22:01:00.522Z,67.62
2022-11-24T22:03:27.203Z,67.67
2022-11-24T22:05:54.681Z,67.67
2022-11-24T22:08:22.002Z,67.06
2022-11-24T22:10:48.566Z,67.33
2022-11-24T22:13:15.365Z,67.69
2022-11-24T22:15:41.979Z,66.96
2022-11-24T22:18:08.837Z,66.47
2022-11-24T22:20:35.520Z,67.10
2022-11-24T22:23:02.172Z,67.52
2022-11-24T22:25:28.766Z,67.48
2022-11-24T22:27:55.308Z,67.40
2022-11-24T22:30:22.178Z,67.70
2022-11-24T22:32:48.730Z,67.99
2022-11-24T22:35:15.323Z,67.92
2022-11-24T22:37:41.876Z,68.18
2022-11-24T22:40:08.894Z,67.21
2022-11-24T22:42:35.430Z,68.33
2022-11-24T22:45:01.970Z,68.15
2022-11-24T22:47:28.539Z,68.56
2022-11-24T22:49:55.151Z,69.02
2022-11-24T22:52:21.698Z,68.52
2022-11-24T22:54:48.333Z,68.10
2022-11-24T22:57:14.851Z,67.67
2022-11-24T22:59:41.476Z,67.76
2022-11-24T23:02:08.086Z,67.00
2022-11-24T23:04:34.822Z,66.13
2022-11-24T23:07:01.655Z,67.33
2022-11-24T23:09:29.188Z,67.86
2022-11-24T23:11:55.835Z,67.66
2022-11-24T23:14:22.426Z,67.87
2022-11-24T23:16:49.151Z,67.83
2022-11-24T23:19:15.870Z,67.81
2022-11-24T23:21:42.458Z,67.74
2022-11-24T23:24:10.213Z,67.46
2022-11-24T23:26:40.935Z,67.68
2022-11-24T23:29:08.412Z,67.68
2022-11-24T23:31:35.551Z,67.48
2022-11-24T23:34:03.498Z,67.31
2022-11-24T23:36:31.662Z,67.95
2022-11-24T23:39:16.502Z,67.52
2022-11-24T23:41:43.106Z,67.14
2022-11-24T23:44:09.699Z,67.09
2022-11-24T23:46:36.387Z,67.29
2022-11-24T23:49:03.158Z,66.25
2022-11-24T23:51:31.919Z,66.02
2022-11-24T23:53:59.934Z,66.06
2022-11-24T23:56:32.187Z,65.65
2022-11-24T23:58:59.471Z,65.01
